createdAt,value
2024-01-08T00:00:03.829Z,-1.04
2024-01-08T00:04:16.393Z,-1.05
2024-01-08T00:08:28.205Z,-1.27
2024-01-08T00:12:39.892Z,-1.09
2024-01-08T00:16:51.610Z,-1.06
2024-01-08T00:21:04.193Z,-1.03
2024-01-08T00:25:15.994Z,-1.13
2024-01-08T00:29:27.836Z,-1.21
2024-01-08T00:33:39.571Z,-1.25
2024-01-08T00:37:51.315Z,-1.35
2024-01-08T00:42:03.049Z,-1.49
2024-01-08T00:46:14.688Z,-1.55
2024-01-08T00:50:27.842Z,-1.65
2024-01-08T00:54:39.623Z,-1.71
2024-01-08T00:58:51.970Z,-1.78
2024-01-08T01:03:03.971Z,-1.81
2024-01-08T01:07:15.659Z,-1.93
2024-01-08T01:11:27.464Z,-1.88
2024-01-08T01:15:39.130Z,-1.95
2024-01-08T01:19:50.777Z,-2.02
2024-01-08T01:24:02.526Z,-2.05
2024-01-08T01:28:14.196Z,-2.14
2024-01-08T01:32:25.849Z,-2.19
2024-01-08T01:36:38.377Z,-2.17
2024-01-08T01:40:49.986Z,-2.17
2024-01-08T01:45:01.682Z,-2.24
2024-01-08T01:49:15.037Z,-2.30
2024-01-08T01:53:28.201Z,-2.27
2024-01-08T01:57:41.349Z,-2.36
2024-01-08T02:01:53.417Z,-2.37
2024-01-08T02:06:10.138Z,-2.35
2024-01-08T02:10:21.972Z,-2.43
2024-01-08T02:14:33.819Z,-2.47
2024-01-08T02:18:45.556Z,-2.54
2024-01-08T02:22:59.556Z,-2.53
2024-01-08T02:27:11.594Z,-2.58
2024-01-08T02:31:23.656Z,-2.48
2024-01-08T02:35:35.384Z,-2.58
2024-01-08T02:39:47.081Z,-2.60
2024-01-08T02:43:58.758Z,-2.58
2024-01-08T02:48:10.787Z,-2.54
2024-01-08T02:52:22.474Z,-2.51
2024-01-08T02:56:34.330Z,-2.40
2024-01-08T03:00:46.013Z,-2.35
2024-01-08T03:04:57.823Z,-2.30
2024-01-08T03:09:09.445Z,-2.22
2024-01-08T03:13:21.107Z,-2.15
2024-01-08T03:17:32.900Z,-2.13
2024-01-08T03:21:44.707Z,-2.06
2024-01-08T03:25:56.426Z,-1.99
2024-01-08T03:30:08.569Z,-1.94
2024-01-08T03:34:20.337Z,-1.98
2024-01-08T03:38:32.101Z,-1.83
2024-01-08T03:42:43.829Z,-1.79
2024-01-08T03:47:13.973Z,-1.82
2024-01-08T03:51:25.735Z,-1.84
2024-01-08T03:55:39.001Z,-1.70
2024-01-08T03:59:50.628Z,-1.68
2024-01-08T04:04:02.703Z,-1.74
2024-01-08T04:08:14.393Z,-1.73
2024-01-08T04:12:26.094Z,-1.67
2024-01-08T04:16:38.748Z,-1.66
2024-01-08T04:20:50.372Z,-1.58
2024-01-08T04:25:01.963Z,-1.72
2024-01-08T04:29:13.686Z,-1.57
2024-01-08T04:33:25.403Z,-1.59
2024-01-08T04:37:37.537Z,-1.50
2024-01-08T04:41:49.371Z,-1.52
2024-01-08T04:46:00.957Z,-1.50
2024-01-08T04:50:12.729Z,-1.44
2024-01-08T04:54:24.364Z,-1.38
2024-01-08T04:58:35.978Z,-1.48
2024-01-08T05:02:47.723Z,-1.35
2024-01-08T05:07:02.174Z,-1.37
2024-01-08T05:11:14.601Z,-1.35
2024-01-08T05:15:26.348Z,-1.33
2024-01-08T05:19:37.994Z,-1.35
2024-01-08T05:23:51.665Z,-1.31
2024-01-08T05:28:04.682Z,-1.21
2024-01-08T05:32:16.355Z,-1.22
2024-01-08T05:36:28.058Z,-1.21
2024-01-08T05:40:39.953Z,-1.26
2024-01-08T05:44:51.637Z,-1.21
2024-01-08T05:49:03.388Z,-1.23
2024-01-08T05:53:15.271Z,-1.19
2024-01-08T05:57:26.962Z,-1.14
2024-01-08T06:01:38.591Z,-1.12
2024-01-08T06:05:51.248Z,-1.11
2024-01-08T06:10:02.981Z,-1.13
2024-01-08T06:14:14.672Z,-1.11
2024-01-08T06:18:28.458Z,-1.11
2024-01-08T06:22:40.158Z,-1.01
2024-01-08T06:26:51.816Z,-1.07
2024-01-08T06:31:04.758Z,-1.01
2024-01-08T06:35:16.500Z,-1.02
2024-01-08T06:39:28.185Z,-1.01
2024-01-08T06:43:40.093Z,-0.96
2024-01-08T06:47:51.820Z,-1.00
2024-01-08T06:52:03.580Z,-0.98
2024-01-08T06:56:15.188Z,-0.94
2024-01-08T07:00:28.313Z,-0.88
2024-01-08T07:04:40.040Z,-0.98
2024-01-08T07:08:51.734Z,-0.91
2024-01-08T07:13:03.512Z,-0.88
2024-01-08T07:17:15.209Z,-0.93
2024-01-08T07:21:27.046Z,-0.85
2024-01-08T07:25:39.814Z,-0.84
2024-01-08T07:29:51.518Z,-0.81
2024-01-08T07:34:03.199Z,-0.85
2024-01-08T07:38:14.898Z,-0.85
2024-01-08T07:42:26.597Z,-0.91
2024-01-08T07:46:38.261Z,-0.92
2024-01-08T07:50:50.042Z,-0.85
2024-01-08T07:55:01.953Z,-0.85
2024-01-08T07:59:13.642Z,-0.76
2024-01-08T08:03:25.277Z,-0.72
2024-01-08T08:07:37.096Z,-0.80
2024-01-08T08:11:48.663Z,-0.72
2024-01-08T08:16:00.683Z,-0.78
2024-01-08T08:20:12.577Z,-0.76
2024-01-08T08:24:24.479Z,-0.83
2024-01-08T08:28:36.125Z,-0.76
2024-01-08T08:32:48.117Z,-0.64
2024-01-08T08:37:03.170Z,-0.81
2024-01-08T08:41:16.529Z,-0.69
2024-01-08T08:45:29.355Z,-0.62
2024-01-08T08:49:41.046Z,-0.62
2024-01-08T08:53:52.661Z,-0.53
2024-01-08T08:58:10.119Z,-0.56
2024-01-08T09:02:21.868Z,-0.63
2024-01-08T09:06:35.913Z,-0.67
2024-01-08T09:10:47.656Z,-0.69
2024-01-08T09:14:59.378Z,-0.59
2024-01-08T09:19:11.220Z,-0.58
2024-01-08T09:23:23.232Z,-0.60
2024-01-08T09:27:34.952Z,-0.66
2024-01-08T09:31:46.983Z,-0.64
2024-01-08T09:35:59.529Z,-0.56
2024-01-08T09:40:11.857Z,-0.49
2024-01-08T09:44:23.925Z,-0.45
2024-01-08T09:48:37.091Z,-0.42
2024-01-08T09:52:50.913Z,-0.29
2024-01-08T09:57:03.685Z,-0.39
2024-01-08T10:01:15.369Z,-0.37
2024-01-08T10:05:28.435Z,-0.24
2024-01-08T10:09:40.551Z,-0.28
2024-01-08T10:13:52.207Z,-0.27
2024-01-08T10:18:07.544Z,-0.16
2024-01-08T10:22:19.296Z,-0.06
2024-01-08T10:26:31.008Z,-0.03
2024-01-08T10:30:43.056Z,0.06
2024-01-08T10:34:56.942Z,0.24
2024-01-08T10:39:11.044Z,0.27
2024-01-08T10:43:22.904Z,0.38
2024-01-08T10:47:36.858Z,0.60
2024-01-08T10:51:50.492Z,0.74
2024-01-08T10:56:07.032Z,0.99
2024-01-08T11:00:20.113Z,1.09
2024-01-08T11:04:32.222Z,0.96
2024-01-08T11:08:44.041Z,0.84
2024-01-08T11:12:56.972Z,0.79
2024-01-08T11:17:11.882Z,0.80
2024-01-08T11:21:28.550Z,0.72
2024-01-08T11:25:50.284Z,0.68
2024-01-08T11:30:05.301Z,0.73
2024-01-08T11:34:45.709Z,0.89
2024-01-08T11:39:14.675Z,0.86
2024-01-08T11:43:27.399Z,0.88
2024-01-08T11:47:40.331Z,0.79
2024-01-08T11:52:01.175Z,0.53
2024-01-08T11:56:12.929Z,0.58
2024-01-08T12:00:29.583Z,0.63
2024-01-08T12:04:53.530Z,0.74
2024-01-08T12:09:05.150Z,0.79
2024-01-08T12:13:18.243Z,0.88
2024-01-08T12:17:30.890Z,0.82
2024-01-08T12:21:46.147Z,0.77
2024-01-08T12:26:00.811Z,0.82
2024-01-08T12:30:13.469Z,0.82
2024-01-08T12:34:30.233Z,0.86
2024-01-08T12:38:42.024Z,0.88
2024-01-08T12:42:53.624Z,0.89
2024-01-08T12:47:06.902Z,0.93
2024-01-08T12:51:19.504Z,0.85
2024-01-08T12:55:31.072Z,0.89
2024-01-08T12:59:53.654Z,0.83
2024-01-08T13:04:06.229Z,0.83
2024-01-08T13:08:17.868Z,0.80
2024-01-08T13:12:29.587Z,0.79
2024-01-08T13:16:42.845Z,0.74
2024-01-08T13:20:54.564Z,0.75
2024-01-08T13:25:06.919Z,0.67
2024-01-08T13:29:18.456Z,0.68
2024-01-08T13:33:30.239Z,0.67
2024-01-08T13:37:41.925Z,0.64
2024-01-08T13:41:53.973Z,0.59
2024-01-08T13:46:05.627Z,0.43
2024-01-08T13:50:19.378Z,0.43
2024-01-08T13:54:31.030Z,0.36
2024-01-08T13:58:42.988Z,0.28
2024-01-08T14:02:54.900Z,0.21
2024-01-08T14:07:06.538Z,0.25
2024-01-08T14:11:18.243Z,0.15
2024-01-08T14:15:29.933Z,0.13
2024-01-08T14:19:41.521Z,0.09
2024-01-08T14:23:53.178Z,-0.02
2024-01-08T14:28:05.113Z,0.01
2024-01-08T14:32:18.315Z,-0.06
2024-01-08T14:36:30.068Z,-0.10
2024-01-08T14:40:45.201Z,-0.16
2024-01-08T14:44:56.803Z,-0.23
2024-01-08T14:49:08.934Z,-0.21
2024-01-08T14:53:20.720Z,-0.24
2024-01-08T14:57:32.717Z,-0.26
2024-01-08T15:01:44.350Z,-0.32
2024-01-08T15:05:56.078Z,-0.43
2024-01-08T15:10:09.463Z,-0.43
2024-01-08T15:14:24.386Z,-0.48
2024-01-08T15:18:38.455Z,-0.60
2024-01-08T15:22:52.219Z,-0.65
2024-01-08T15:27:06.098Z,-0.63
2024-01-08T15:31:20.744Z,-0.68
2024-01-08T15:35:34.545Z,-0.77
2024-01-08T15:39:46.306Z,-0.75
2024-01-08T15:43:58.382Z,-0.85
2024-01-08T15:48:10.192Z,-0.83
2024-01-08T15:52:21.927Z,-0.90
2024-01-08T15:56:34.006Z,-1.08
2024-01-08T16:00:48.611Z,-0.96
2024-01-08T16:05:02.528Z,-0.96
2024-01-08T16:09:14.400Z,-0.96
2024-01-08T16:13:26.666Z,-1.01
2024-01-08T16:17:38.523Z,-1.02
2024-01-08T16:21:50.206Z,-1.08
2024-01-08T16:26:01.995Z,-1.07
2024-01-08T16:30:15.396Z,-1.09
2024-01-08T16:34:32.457Z,-1.19
2024-01-08T16:38:49.321Z,-1.16
2024-01-08T16:43:01.045Z,-1.17
2024-01-08T16:47:12.940Z,-1.22
2024-01-08T16:51:24.800Z,-1.23
2024-01-08T16:55:37.004Z,-1.16
2024-01-08T16:59:48.802Z,-1.15
2024-01-08T17:04:01.163Z,-1.26
2024-01-08T17:08:13.388Z,-1.27
2024-01-08T17:12:25.202Z,-1.29
2024-01-08T17:16:37.350Z,-1.30
2024-01-08T17:20:49.176Z,-1.30
2024-01-08T17:25:04.179Z,-1.33
2024-01-08T17:29:15.878Z,-1.34
2024-01-08T17:33:27.691Z,-1.36
2024-01-08T17:37:39.550Z,-1.47
2024-01-08T17:41:51.335Z,-1.45
2024-01-08T17:46:03.129Z,-1.49
2024-01-08T17:50:15.272Z,-1.47
2024-01-08T17:54:27.431Z,-1.52
2024-01-08T17:58:39.441Z,-1.52
2024-01-08T18:02:52.675Z,-1.52
2024-01-08T18:07:05.140Z,-1.58
2024-01-08T18:11:16.857Z,-1.52
2024-01-08T18:15:29.186Z,-1.55
2024-01-08T18:19:42.693Z,-1.60
2024-01-08T18:23:54.837Z,-1.58
2024-01-08T18:28:06.610Z,-1.70
2024-01-08T18:32:18.817Z,-1.67
2024-01-08T18:36:30.684Z,-1.68
2024-01-08T18:40:43.279Z,-1.60
2024-01-08T18:44:55.019Z,-1.83
2024-01-08T18:49:07.525Z,-1.63
2024-01-08T18:53:19.276Z,-1.64
2024-01-08T18:57:31.321Z,-1.79
2024-01-08T19:01:43.584Z,-1.66
2024-01-08T19:05:56.132Z,-1.61
2024-01-08T19:10:08.015Z,-1.68
2024-01-08T19:14:19.825Z,-1.71
2024-01-08T19:18:33.244Z,-1.78
2024-01-08T19:22:44.972Z,-1.80
2024-01-08T19:26:57.988Z,-1.77
2024-01-08T19:31:10.127Z,-1.79
2024-01-08T19:35:22.066Z,-1.71
2024-01-08T19:39:33.688Z,-1.77
2024-01-08T19:43:50.388Z,-1.79
2024-01-08T19:48:02.386Z,-1.79
2024-01-08T19:52:14.423Z,-1.84
2024-01-08T19:56:26.101Z,-1.83
2024-01-08T20:00:37.878Z,-1.92
2024-01-08T20:04:49.992Z,-1.92
2024-01-08T20:09:01.676Z,-1.85
2024-01-08T20:13:13.359Z,-2.00
2024-01-08T20:17:25.006Z,-2.01
2024-01-08T20:21:36.783Z,-2.01
2024-01-08T20:25:50.329Z,-2.05
2024-01-08T20:30:02.395Z,-1.98
2024-01-08T20:34:14.474Z,-1.99
2024-01-08T20:38:27.307Z,-2.07
2024-01-08T20:42:39.386Z,-2.07
2024-01-08T20:46:51.037Z,-2.09
2024-01-08T20:51:02.830Z,-2.16
2024-01-08T20:55:14.543Z,-2.09
2024-01-08T20:59:26.398Z,-2.16
2024-01-08T21:03:38.136Z,-2.16
2024-01-08T21:07:49.795Z,-2.12
2024-01-08T21:12:01.447Z,-2.19
2024-01-08T21:16:16.184Z,-2.24
2024-01-08T21:20:27.871Z,-2.28
2024-01-08T21:24:39.930Z,-2.28
2024-01-08T21:28:51.590Z,-2.32
2024-01-08T21:33:04.431Z,-2.30
2024-01-08T21:37:16.209Z,-2.34
2024-01-08T21:41:27.897Z,-2.37
2024-01-08T21:45:39.594Z,-2.35
2024-01-08T21:49:51.874Z,-2.39
2024-01-08T21:54:03.557Z,-2.38
2024-01-08T21:58:15.149Z,-2.41
2024-01-08T22:02:27.004Z,-2.40
2024-01-08T22:06:38.829Z,-2.43
2024-01-08T22:10:50.503Z,-2.49
2024-01-08T22:15:02.099Z,-2.52
2024-01-08T22:19:13.762Z,-2.57
2024-01-08T22:23:25.545Z,-2.45
2024-01-08T22:27:37.210Z,-2.56
2024-01-08T22:31:48.899Z,-2.54
2024-01-08T22:36:00.567Z,-2.63
2024-01-08T22:40:12.977Z,-2.62
2024-01-08T22:44:25.919Z,-2.66
2024-01-08T22:48:39.173Z,-2.69
2024-01-08T22:52:50.785Z,-2.67
2024-01-08T22:57:02.395Z,-2.70
2024-01-08T23:01:14.167Z,-2.72
2024-01-08T23:05:26.081Z,-2.72
2024-01-08T23:09:37.860Z,-2.73
2024-01-08T23:13:49.490Z,-2.76
2024-01-08T23:18:04.912Z,-2.85
2024-01-08T23:22:16.773Z,-2.82
2024-01-08T23:26:28.666Z,-2.85
2024-01-08T23:30:40.392Z,-2.87
2024-01-08T23:34:52.035Z,-2.90
2024-01-08T23:39:03.649Z,-2.87
2024-01-08T23:43:17.185Z,-2.91
2024-01-08T23:47:28.980Z,-2.91
2024-01-08T23:51:40.987Z,-3.01
2024-01-08T23:55:52.674Z,-3.02
